Los Lunas, NM (87031)

2:22 PM MDT on June 02, 2015 (GMT -0600)
Valencia Y | | Change Station
CLOSE
Current Station
Personal Weather Station
Location: Los Lunas, NM
Elevation: 4852 ft
Nearby Weather Stations

Elev 4852 ft 34.81 °N, 106.70 °W | Updated 6 seconds ago

Clear
Clear
89.1 °F
Feels Like 85 °F
N
2.0
Wind Variable Wind from ENE
Gusts 6.0 mph

Today
High -- | Low -- °F
--% Chance of Precip.
Yesterday
High -- | Low -- °F
Precip. -- in
5:54 AM 8:15 PM
Full, 100% visible
Pressure 30.05 in
Visibility 10.0 miles
Clouds Clear
Heat Index 85 °F
Dew Point 30 °F
Humidity 6%
Rainfall 0.00 in
Snow Depth Not available.
UV 12 out of 12
Pollen 5.60 out of 12
Air Quality Not available.
Flu Activity Sporadic
METAR KE80 022015Z AUTO 05009KT 040V140 10SM CLR 31/M04 A3005 RMK AO2 T03081037

More Conditions Fewer Conditions

Pressure 30.05 in
Visibility 10.0 miles
Clouds Clear
Heat Index 85 °F
Dew Point 30 °F
Humidity 6%
Rainfall 0.00 in
Snow Depth Not available.
UV 12 out of 12
Pollen 5.60 out of 12
Air Quality Not available.
Flu Activity Sporadic
METAR KE80 022015Z AUTO 05009KT 040V140 10SM CLR 31/M04 A3005 RMK AO2 T03081037

More Conditions Fewer Conditions

10-Day Weather Forecast

×

Almanac

Astronomy

Jun. 02, 2015 Rise Set
Actual Time
Civil Twilight
Nautical Twilight
Astronomical Twilight
Moon
Length of Visible Light
Length of Day
Tomorrow will be .
, % of the Moon is Illuminated

Today's Extremes

State Highs State Lows

Community

WunderPhotos

Upload Photos

1,826,025 photos uploaded!

WunderBlogs® & News

Nearby

Air Quality

  Air Quality AQ Index Pollutant
Not available.

Snow Depth

Station Depth Elevation

Earthquake Activity

City Distance Mag. Time & Date
Minimum magnitude displayed is 2.5.

Coastal Water Temperatures

Place Temperature

Stations

Nearby Weather Stations

Station Location Temp. Windchill Dew Point Humidity Wind Precip. Elev Updated Type